Time;durP1;ratioP1;P1;durP2;ratioP2;P2;SDS_P1;SDS_P2;PMS_P1;PMS_P2;Temp;Humidity;BMP_temperature;BMP_pressure;BME280_temperature;BME280_humidity;BME280_pressure;Samples;Min_cycle;Max_cycle;Signal;HPM_P1;HPM_P2
2022/04/06 00:01:50;;;;;;;11.10;6.08;;;;;;;21.84;48.18;97495.11;1753415;81;27390;-86
2022/04/06 00:04:16;;;;;;;11.00;6.47;;;;;;;21.85;48.17;97495.31;1753247;81;25789;-86
2022/04/06 00:06:42;;;;;;;9.93;5.50;;;;;;;21.86;48.18;97494.69;1753385;81;25749;-85
2022/04/06 00:09:09;;;;;;;10.82;5.50;;;;;;;21.87;48.20;97492.08;1753366;81;26641;-85
2022/04/06 00:11:34;;;;;;;9.48;5.62;;;;;;;21.86;48.22;97488.52;1753487;81;25566;-86
2022/04/06 00:14:00;;;;;;;10.90;6.08;;;;;;;21.87;48.25;97486.50;1753266;81;27409;-86
2022/04/06 00:16:26;;;;;;;10.68;6.08;;;;;;;21.89;48.29;97484.89;1753401;81;25495;-87
2022/04/06 00:18:52;;;;;;;11.38;6.35;;;;;;;21.89;48.28;97484.89;1753378;81;25609;-86
2022/04/06 00:21:19;;;;;;;10.93;6.20;;;;;;;21.89;48.29;97493.25;1753252;81;25753;-86
2022/04/06 00:23:45;;;;;;;13.05;6.20;;;;;;;21.90;48.31;97488.45;1753060;81;25668;-86
2022/04/06 00:26:11;;;;;;;9.73;5.62;;;;;;;21.90;48.32;97487.86;1753179;81;28383;-86
2022/04/06 00:28:37;;;;;;;10.43;5.55;;;;;;;21.91;48.36;97478.89;1753300;81;25780;-86
2022/04/06 00:31:03;;;;;;;11.38;5.83;;;;;;;21.91;48.36;97488.03;1753344;81;25588;-87
2022/04/06 00:33:29;;;;;;;10.30;5.60;;;;;;;21.91;48.38;97491.45;1753259;81;25851;-86
2022/04/06 00:35:56;;;;;;;11.45;5.80;;;;;;;21.91;48.38;97486.64;1753340;81;25638;-86
2022/04/06 00:38:22;;;;;;;10.75;5.58;;;;;;;21.92;48.40;97489.63;1753047;81;27496;-87
2022/04/06 00:40:48;;;;;;;8.78;5.25;;;;;;;21.92;48.42;97491.03;1753119;81;25678;-86
2022/04/06 00:43:15;;;;;;;11.90;6.00;;;;;;;21.93;48.43;97495.38;1753274;81;25448;-86
2022/04/06 00:45:43;;;;;;;10.85;5.58;;;;;;;21.95;48.45;97496.36;1756667;80;25904;-86
2022/04/06 00:48:11;;;;;;;8.35;5.00;;;;;;;21.94;48.45;97487.19;1757080;81;25468;-86
2022/04/06 00:50:39;;;;;;;9.20;5.50;;;;;;;21.96;48.47;97488.80;1756993;81;27539;-87
2022/04/06 00:53:06;;;;;;;9.70;5.53;;;;;;;21.94;48.46;97489.98;1757125;81;25634;-86
2022/04/06 00:55:37;;;;;;;9.05;5.50;;;;;;;21.94;48.50;97485.03;1757152;81;25500;-87
2022/04/06 00:58:08;;;;;;;;;;;;;;;21.94;48.49;97478.83;1759393;81;25772;-87
2022/04/06 01:00:34;;;;;;;9.20;5.10;;;;;;;21.94;48.54;97485.03;1757067;81;25641;-87
2022/04/06 01:03:01;;;;;;;9.15;5.00;;;;;;;21.92;48.55;97484.05;1756990;81;28397;-86
2022/04/06 01:05:27;;;;;;;9.35;5.50;;;;;;;21.93;48.57;97480.64;1756910;81;25812;-86
2022/04/06 01:07:56;;;;;;;9.50;5.65;;;;;;;21.92;48.60;97484.05;1757091;81;25670;-86
2022/04/06 01:10:23;;;;;;;10.05;5.30;;;;;;;21.93;48.62;97483.43;1757064;81;25684;-87
2022/04/06 01:12:50;;;;;;;10.23;5.72;;;;;;;21.92;48.63;97488.23;1757276;81;25665;-87
2022/04/06 01:15:18;;;;;;;8.90;5.22;;;;;;;21.93;48.66;97493.19;1756886;81;27390;-87
2022/04/06 01:17:44;;;;;;;9.10;5.10;;;;;;;21.93;48.65;97493.19;1757241;81;25507;-86
2022/04/06 01:20:13;;;;;;;8.80;5.05;;;;;;;21.94;48.66;97487.81;1757267;81;25423;-86
2022/04/06 01:22:39;;;;;;;9.58;5.05;;;;;;;21.93;48.69;97492.59;1757163;81;25688;-87
2022/04/06 01:25:07;;;;;;;8.83;5.03;;;;;;;21.93;48.70;97486.22;1757270;81;25697;-86
2022/04/06 01:27:34;;;;;;;9.53;5.17;;;;;;;21.93;48.71;97493.98;1757267;81;27416;-86
2022/04/06 01:29:59;;;;;;;8.55;4.67;;;;;;;21.94;48.72;97499.74;1757125;81;25626;-87
2022/04/06 01:32:32;;;;;;;8.20;5.05;;;;;;;21.94;48.75;97497.58;1757207;81;25898;-87
2022/04/06 01:34:59;;;;;;;10.10;5.40;;;;;;;21.93;48.76;97499.56;1756833;81;25911;-86
2022/04/06 01:37:26;;;;;;;8.73;4.70;;;;;;;21.92;48.78;97504.17;1757182;81;25680;-86
2022/04/06 01:39:52;;;;;;;9.95;5.33;;;;;;;21.91;48.78;97493.61;1757134;81;27448;-87
2022/04/06 01:42:20;;;;;;;8.30;4.65;;;;;;;21.92;48.80;97504.97;1757216;81;25829;-87
2022/04/06 01:44:49;;;;;;;9.40;5.20;;;;;;;21.92;48.80;97502.18;1756957;81;25781;-85
2022/04/06 01:47:18;;;;;;;9.28;4.83;;;;;;;21.92;48.85;97491.62;1757142;81;25845;-86
2022/04/06 01:52:31;;;;;;;7.53;4.70;;;;;;;21.90;48.87;97480.88;1756897;81;25651;-86
2022/04/06 01:55:02;;;;;;;8.48;4.87;;;;;;;21.90;48.88;97480.09;1757124;81;26087;-85
2022/04/06 01:57:30;;;;;;;7.78;4.65;;;;;;;21.90;48.90;97480.88;1757309;81;25597;-86
2022/04/06 01:59:57;;;;;;;8.23;4.87;;;;;;;21.89;48.91;97482.10;1757083;81;26704;-86
2022/04/06 02:02:27;;;;;;;8.70;5.17;;;;;;;21.90;48.91;97471.72;1757328;81;25574;-86
2022/04/06 02:04:53;;;;;;;9.03;4.97;;;;;;;21.90;48.94;97466.94;1757299;81;27477;-86
2022/04/06 02:07:19;;;;;;;7.78;4.50;;;;;;;21.88;48.97;97470.74;1757158;81;25464;-86
2022/04/06 02:09:45;;;;;;;8.63;4.72;;;;;;;21.87;48.98;97474.75;1757248;81;25650;-85
2022/04/06 02:12:13;;;;;;;7.42;4.30;;;;;;;21.87;48.98;97477.54;1757223;81;25709;-86
2022/04/06 02:14:41;;;;;;;8.50;4.47;;;;;;;21.87;49.03;97477.54;1757254;81;25432;-85
2022/04/06 02:17:07;;;;;;;7.22;4.42;;;;;;;21.87;49.04;97473.95;1757228;81;28171;-85
2022/04/06 02:19:36;;;;;;;7.37;4.47;;;;;;;21.87;49.05;97479.53;1756979;81;25665;-86
2022/04/06 02:22:07;;;;;;;7.60;4.53;;;;;;;21.87;49.06;97476.14;1756815;81;25416;-85
2022/04/06 02:24:34;;;;;;;8.08;4.75;;;;;;;21.87;49.07;97480.92;1757079;81;26464;-86
2022/04/06 02:27:00;;;;;;;7.15;4.30;;;;;;;21.86;49.11;97477.36;1757143;81;25602;-85
2022/04/06 02:29:26;;;;;;;8.33;4.60;;;;;;;21.85;49.13;97480.57;1757188;81;27474;-86
2022/04/06 02:31:52;;;;;;;7.72;4.50;;;;;;;21.85;49.13;97488.34;1756977;81;25448;-85
2022/04/06 02:34:19;;;;;;;7.25;4.37;;;;;;;21.86;49.14;97494.69;1757254;81;25748;-86
2022/04/06 02:36:45;;;;;;;7.72;4.60;;;;;;;21.85;49.13;97493.92;1757069;81;25831;-85
2022/04/06 02:39:11;;;;;;;7.85;4.62;;;;;;;21.86;49.18;97494.09;1757225;81;25757;-85
2022/04/06 02:41:37;;;;;;;8.80;4.83;;;;;;;21.85;49.17;97494.52;1757128;81;27510;-85
2022/04/06 02:44:05;;;;;;;7.33;4.37;;;;;;;21.84;49.20;97502.08;1756871;81;25440;-86
2022/04/06 02:46:32;;;;;;;6.72;4.05;;;;;;;21.84;49.21;97504.09;1753134;81;25428;-85
2022/04/06 02:48:58;;;;;;;7.22;4.40;;;;;;;21.83;49.22;97498.31;1753434;81;26466;-86
2022/04/06 02:51:24;;;;;;;7.62;4.33;;;;;;;21.83;49.25;97503.89;1753518;81;25590;-86
2022/04/06 02:53:50;;;;;;;8.25;4.58;;;;;;;21.82;49.23;97503.13;1753463;81;28310;-87
2022/04/06 02:56:16;;;;;;;8.28;4.45;;;;;;;21.81;49.29;97503.72;1753356;81;25760;-87
2022/04/06 02:58:42;;;;;;;6.90;4.00;;;;;;;21.82;49.29;97503.13;1753364;81;25445;-87
2022/04/06 03:01:08;;;;;;;7.78;4.20;;;;;;;21.82;49.30;97501.73;1753367;81;25686;-87
2022/04/06 03:03:34;;;;;;;7.83;4.40;;;;;;;21.81;49.30;97500.13;1753612;81;25590;-87
2022/04/06 03:06:02;;;;;;;6.87;4.15;;;;;;;21.80;49.30;97496.56;1753386;81;27383;-86
2022/04/06 03:08:29;;;;;;;8.43;4.30;;;;;;;21.80;49.33;97502.14;1753331;81;25446;-85
2022/04/06 03:10:55;;;;;;;6.97;4.08;;;;;;;21.79;49.35;97506.75;1753163;81;25499;-85
2022/04/06 03:13:21;;;;;;;7.28;3.92;;;;;;;21.78;49.37;97507.34;1753375;81;26691;-85
2022/04/06 03:15:47;;;;;;;7.17;4.42;;;;;;;21.78;49.39;97505.14;1753444;81;25677;-86
2022/04/06 03:18:13;;;;;;;7.50;4.33;;;;;;;21.78;49.39;97502.36;1753539;81;28008;-85
2022/04/06 03:20:39;;;;;;;7.33;4.40;;;;;;;21.77;49.42;97509.15;1753322;81;25675;-85
2022/04/06 03:23:05;;;;;;;7.20;4.42;;;;;;;21.76;49.44;97515.95;1753573;81;26283;-85
2022/04/06 03:25:31;;;;;;;6.90;4.15;;;;;;;21.76;49.44;97510.37;1753283;81;25684;-87
2022/04/06 03:27:57;;;;;;;7.10;3.95;;;;;;;21.76;49.47;97507.58;1753481;81;25650;-86
2022/04/06 03:30:23;;;;;;;6.17;3.83;;;;;;;21.75;49.50;97509.54;1753528;81;26887;-86
2022/04/06 03:32:49;;;;;;;6.08;4.10;;;;;;;21.74;49.50;97502.98;1752929;81;25785;-86
2022/04/06 03:35:15;;;;;;;6.62;4.20;;;;;;;21.72;49.53;97501.20;1753382;81;25681;-86
2022/04/06 03:37:41;;;;;;;7.12;4.15;;;;;;;21.72;49.55;97505.39;1753412;81;25759;-86
2022/04/06 03:40:09;;;;;;;6.60;4.00;;;;;;;21.72;49.57;97512.36;1753473;81;25737;-86
2022/04/06 03:42:35;;;;;;;7.35;4.00;;;;;;;21.69;49.56;97503.64;1753391;81;27545;-86
2022/04/06 03:45:02;;;;;;;6.90;4.28;;;;;;;21.71;49.59;97503.81;1753099;80;25574;-86
2022/04/06 03:47:33;;;;;;;7.42;4.28;;;;;;;21.70;49.61;97504.41;1753416;81;25567;-86
2022/04/06 03:50:00;;;;;;;6.58;4.00;;;;;;;21.69;49.62;97505.62;1753266;81;25739;-85
2022/04/06 03:52:28;;;;;;;6.28;4.00;;;;;;;21.67;49.63;97507.44;1753077;81;25669;-86
2022/04/06 03:54:55;;;;;;;7.28;4.10;;;;;;;21.68;49.63;97506.84;1753389;81;28222;-86
2022/04/06 03:57:21;;;;;;;6.22;3.65;;;;;;;21.66;49.68;97503.67;1753136;81;25617;-86
2022/04/06 03:59:47;;;;;;;6.60;3.85;;;;;;;21.65;49.70;97502.88;1753401;81;25500;-86
2022/04/06 04:02:14;;;;;;;7.12;3.67;;;;;;;21.64;49.71;97499.91;1753364;81;25831;-86
2022/04/06 04:04:40;;;;;;;7.78;3.90;;;;;;;21.64;49.77;97510.27;1753342;81;25725;-87
2022/04/06 04:07:09;;;;;;;6.37;4.03;;;;;;;21.61;49.76;97507.71;1753352;81;27514;-87
2022/04/06 04:09:36;;;;;;;6.30;3.52;;;;;;;21.61;49.77;97509.11;1753197;81;26012;-86
2022/04/06 04:12:05;;;;;;;7.35;4.03;;;;;;;21.61;49.80;97506.91;1753209;81;25681;-86
2022/04/06 04:14:33;;;;;;;5.97;3.77;;;;;;;21.61;49.81;97510.50;1753365;81;25742;-86
2022/04/06 04:17:00;;;;;;;6.83;3.95;;;;;;;21.62;49.77;97523.84;1752873;81;25480;-86
2022/04/06 04:19:26;;;;;;;5.90;3.45;;;;;;;21.60;49.75;97516.49;1753251;81;28393;-86
2022/04/06 04:21:52;;;;;;;6.42;3.83;;;;;;;21.60;49.72;97520.08;1753326;81;25746;-87
2022/04/06 04:24:19;;;;;;;7.33;4.20;;;;;;;21.60;49.71;97524.86;1753292;81;25657;-87
2022/04/06 04:26:45;;;;;;;6.12;3.87;;;;;;;21.60;49.75;97527.05;1753250;81;25678;-85
2022/04/06 04:29:11;;;;;;;6.87;3.58;;;;;;;21.60;49.70;97520.67;1753370;81;25663;-85
2022/04/06 04:31:37;;;;;;;5.50;3.58;;;;;;;21.59;49.74;97526.88;1753393;81;27420;-86
2022/04/06 04:34:03;;;;;;;6.40;3.70;;;;;;;21.59;49.73;97526.88;1753205;81;25756;-86
2022/04/06 04:36:30;;;;;;;5.58;3.42;;;;;;;21.58;49.72;97525.89;1753466;81;25733;-85
2022/04/06 04:38:56;;;;;;;5.83;3.67;;;;;;;21.56;49.75;97525.69;1753229;81;25785;-86
2022/04/06 04:41:22;;;;;;;5.92;3.72;;;;;;;21.56;49.76;97536.84;1753325;81;25435;-86
2022/04/06 04:43:50;;;;;;;6.35;3.60;;;;;;;21.56;49.78;97533.28;1753454;81;28055;-85
2022/04/06 04:46:18;;;;;;;6.62;4.00;;;;;;;21.56;49.79;97541.64;1755385;81;25499;-85
2022/04/06 04:48:45;;;;;;;7.10;3.75;;;;;;;21.55;49.82;97542.23;1757125;81;25591;-86
2022/04/06 04:51:12;;;;;;;6.92;3.67;;;;;;;21.54;49.80;97537.88;1757022;81;26558;-85
2022/04/06 04:53:38;;;;;;;5.53;3.10;;;;;;;21.55;49.81;97535.86;1757124;81;25645;-86
2022/04/06 04:56:05;;;;;;;5.62;3.42;;;;;;;21.55;49.85;97533.07;1757098;81;27576;-86
2022/04/06 04:58:31;;;;;;;6.08;3.37;;;;;;;21.54;49.86;97543.45;1756931;81;25742;-85
2022/04/06 05:00:57;;;;;;;5.70;3.30;;;;;;;21.54;49.85;97542.05;1757135;81;25686;-86
2022/04/06 05:03:23;;;;;;;5.87;3.72;;;;;;;21.55;49.84;97540.84;1757140;81;25894;-86
2022/04/06 05:05:53;;;;;;;6.30;3.65;;;;;;;21.57;49.83;97537.64;1757238;81;25466;-86
2022/04/06 05:08:18;;;;;;;6.30;3.62;;;;;;;21.58;49.82;97538.44;1756380;81;26105;-85
2022/04/06 05:10:45;;;;;;;5.87;3.50;;;;;;;21.59;49.84;97543.59;1757074;81;25753;-86
2022/04/06 05:13:13;;;;;;;5.92;3.37;;;;;;;21.59;49.84;97545.58;1756985;81;25756;-86
2022/04/06 05:15:39;;;;;;;5.40;3.30;;;;;;;21.60;49.84;97548.55;1756729;81;25428;-86
2022/04/06 05:18:05;;;;;;;6.53;3.85;;;;;;;21.61;49.84;97545.94;1757225;81;25478;-87
2022/04/06 05:20:31;;;;;;;5.45;3.20;;;;;;;21.61;49.84;97548.13;1756988;81;27417;-86
2022/04/06 05:22:58;;;;;;;5.17;3.35;;;;;;;21.62;49.87;97554.51;1757054;81;25808;-87
2022/04/06 05:25:24;;;;;;;6.37;3.98;;;;;;;21.64;49.86;97556.26;1756986;81;25706;-86
2022/04/06 05:27:56;;;;;;;5.83;3.42;;;;;;;21.63;49.88;97552.70;1756992;81;25737;-86
2022/04/06 05:30:25;;;;;;;6.42;3.62;;;;;;;21.64;49.87;97561.24;1757245;81;25484;-86
2022/04/06 05:32:55;;;;;;;5.43;3.50;;;;;;;21.64;49.89;97570.20;1757379;81;26708;-87
2022/04/06 05:35:25;;;;;;;5.47;3.17;;;;;;;21.64;49.88;97573.78;1756721;81;25757;-87
2022/04/06 05:37:52;;;;;;;7.00;3.77;;;;;;;21.66;49.92;97578.95;1756847;81;25622;-86
2022/04/06 05:40:20;;;;;;;6.28;3.60;;;;;;;21.66;49.90;97574.77;1756938;81;25746;-87
2022/04/06 05:42:46;;;;;;;4.78;3.05;;;;;;;21.66;49.93;97576.16;1757046;81;25452;-86
2022/04/06 05:45:13;;;;;;;5.50;3.08;;;;;;;21.67;49.93;97576.34;1756643;80;27641;-87
2022/04/06 05:47:39;;;;;;;5.70;3.12;;;;;;;21.68;49.94;97577.94;1753286;81;26082;-86
2022/04/06 05:50:08;;;;;;;5.20;3.52;;;;;;;21.71;49.96;97577.70;1753167;81;25643;-85
2022/04/06 05:52:34;;;;;;;5.62;3.20;;;;;;;21.71;49.97;97576.31;1753239;81;25760;-85
2022/04/06 05:55:02;;;;;;;5.47;3.40;;;;;;;21.72;49.97;97577.28;1753382;81;25728;-85
2022/04/06 05:57:28;;;;;;;6.03;3.40;;;;;;;21.72;49.99;97576.48;1753268;81;27447;-85
2022/04/06 05:59:54;;;;;;;4.67;3.17;;;;;;;21.73;49.97;97576.69;1753365;81;25784;-85
2022/04/06 06:02:23;;;;;;;5.30;3.10;;;;;;;21.74;50.01;97590.22;1753374;81;25883;-85
2022/04/06 06:04:48;;;;;;;5.05;3.20;;;;;;;21.75;50.01;97586.80;1752733;81;25583;-86
2022/04/06 06:07:14;;;;;;;4.47;3.02;;;;;;;21.75;50.02;97591.79;1753540;81;25639;-86
2022/04/06 06:09:40;;;;;;;5.03;3.17;;;;;;;21.76;50.06;97596.80;1753536;81;27369;-86
2022/04/06 06:12:07;;;;;;;5.50;3.30;;;;;;;21.77;50.08;97598.38;1753385;81;25687;-85
2022/04/06 06:14:33;;;;;;;5.62;3.37;;;;;;;21.77;50.09;97597.78;1753462;81;25488;-86
2022/04/06 06:16:59;;;;;;;5.17;3.17;;;;;;;21.77;50.13;97600.57;1753447;81;25727;-86
2022/04/06 06:19:26;;;;;;;5.08;3.40;;;;;;;21.79;50.12;97608.52;1753452;81;25661;-85
2022/04/06 06:21:53;;;;;;;4.87;3.05;;;;;;;21.79;50.15;97614.09;1753221;81;27384;-86
2022/04/06 06:24:20;;;;;;;4.92;3.05;;;;;;;21.80;50.14;97618.45;1753323;81;25751;-85
2022/04/06 06:26:48;;;;;;;4.97;2.90;;;;;;;21.80;50.18;97619.84;1753146;81;25610;-86
2022/04/06 06:29:14;;;;;;;6.20;3.10;;;;;;;21.81;50.19;97631.18;1753410;81;26458;-85
2022/04/06 06:31:41;;;;;;;4.60;3.17;;;;;;;21.81;50.19;97626.41;1753356;81;25738;-86
2022/04/06 06:34:07;;;;;;;4.67;2.90;;;;;;;21.82;50.21;97620.23;1753367;81;28286;-87
2022/04/06 06:36:34;;;;;;;4.95;3.08;;;;;;;21.83;50.22;97627.38;1753356;81;25812;-87
2022/04/06 06:39:02;;;;;;;5.08;3.05;;;;;;;21.84;50.22;97617.03;1753047;81;25459;-87
2022/04/06 06:41:29;;;;;;;5.58;3.15;;;;;;;21.84;50.24;97628.19;1753359;81;25690;-87
2022/04/06 06:43:58;;;;;;;4.80;3.02;;;;;;;21.84;50.27;97624.00;1753216;81;25416;-87
2022/04/06 06:46:25;;;;;;;5.90;3.50;;;;;;;21.84;50.26;97624.77;1754785;80;27844;-87
2022/04/06 06:48:51;;;;;;;4.33;2.90;;;;;;;21.84;50.26;97621.98;1757189;81;25615;-87
2022/04/06 06:51:18;;;;;;;4.53;2.90;;;;;;;21.84;50.31;97615.02;1756843;81;25704;-87
2022/04/06 06:53:45;;;;;;;4.28;2.92;;;;;;;21.84;50.32;97612.23;1757136;81;25762;-88
2022/04/06 06:56:11;;;;;;;4.58;2.90;;;;;;;21.85;50.31;97614.42;1757239;81;25416;-88
2022/04/06 06:58:37;;;;;;;5.17;3.05;;;;;;;21.85;50.31;97613.83;1756998;81;28280;-89
2022/04/06 07:01:04;;;;;;;5.05;3.20;;;;;;;21.86;50.31;97619.58;1757117;81;25863;-89
2022/04/06 07:03:30;;;;;;;5.17;3.10;;;;;;;21.87;50.35;97625.94;1757222;81;25898;-90
2022/04/06 07:05:56;;;;;;;4.28;2.67;;;;;;;21.87;50.36;97623.14;1757049;81;25881;-91
2022/04/06 07:08:22;;;;;;;5.40;3.30;;;;;;;21.87;50.37;97620.36;1757190;81;25720;-91
2022/04/06 07:10:49;;;;;;;4.83;3.00;;;;;;;21.87;50.37;97614.78;1757306;81;28107;-89
2022/04/06 07:13:16;;;;;;;4.40;2.67;;;;;;;21.89;50.37;97619.34;1756814;81;26133;-87
2022/04/06 07:15:44;;;;;;;4.50;2.77;;;;;;;21.88;50.45;97610.17;1756942;81;25666;-87
2022/04/06 07:18:12;;;;;;;4.45;2.80;;;;;;;21.89;50.49;97611.78;1757148;81;26462;-88
2022/04/06 07:20:40;;;;;;;4.85;3.10;;;;;;;21.91;50.50;97608.58;1756805;81;25627;-87
2022/04/06 07:23:07;;;;;;;4.28;2.70;;;;;;;21.91;50.50;97607.18;1757162;81;27393;-88
2022/04/06 07:25:35;;;;;;;5.75;3.00;;;;;;;21.91;50.48;97603.00;1756961;81;25828;-89
2022/04/06 07:28:02;;;;;;;6.08;2.98;;;;;;;21.92;50.46;97612.94;1756832;81;25736;-88
2022/04/06 07:30:29;;;;;;;5.22;3.10;;;;;;;21.92;50.48;97598.99;1757128;81;25905;-89
2022/04/06 07:32:57;;;;;;;5.22;2.80;;;;;;;21.94;50.51;97604.95;1757106;81;25882;-88
2022/04/06 07:35:25;;;;;;;5.85;2.80;;;;;;;21.96;50.52;97600.36;1756932;81;27526;-88
2022/04/06 07:37:52;;;;;;;5.17;2.77;;;;;;;21.95;50.55;97600.95;1757035;81;25895;-94
2022/04/06 07:40:22;;;;;;;5.17;2.83;;;;;;;21.94;50.52;97605.73;1757142;81;25677;-89
2022/04/06 07:42:50;;;;;;;4.65;2.77;;;;;;;21.96;50.58;97614.30;1756340;81;25729;-91
2022/04/06 07:45:20;;;;;;;6.30;2.95;;;;;;;21.95;50.59;97619.08;1757244;81;25742;-92
2022/04/06 07:47:52;;;;;;;5.03;3.15;;;;;;;21.94;50.61;97620.30;1753601;81;27467;-92
2022/04/06 07:50:21;;;;;;;11.18;3.40;;;;;;;21.92;50.62;97626.28;1753295;81;25465;-91
2022/04/06 07:52:48;;;;;;;6.72;3.42;;;;;;;21.92;50.61;97621.30;1753495;81;25725;-90
2022/04/06 07:55:14;;;;;;;5.40;3.15;;;;;;;21.91;50.58;97624.69;1753217;81;25830;-92
2022/04/06 07:57:42;;;;;;;6.53;3.10;;;;;;;21.92;50.56;97628.27;1753474;81;25638;-92
2022/04/06 08:00:13;;;;;;;4.33;2.80;;;;;;;21.91;50.55;97627.48;1753257;81;27566;-91
2022/04/06 08:02:40;;;;;;;5.22;3.15;;;;;;;21.92;50.55;97628.27;1753039;81;25583;-93
2022/04/06 08:05:07;;;;;;;6.10;3.00;;;;;;;21.90;50.56;97639.84;1753525;81;25439;-93
2022/04/06 08:07:33;;;;;;;6.22;3.40;;;;;;;21.91;50.56;97635.84;1753168;81;25663;-92
2022/04/06 08:10:00;;;;;;;6.45;3.40;;;;;;;21.91;50.61;97626.70;1753416;81;25461;-91
2022/04/06 08:12:26;;;;;;;6.08;3.20;;;;;;;21.91;50.57;97631.66;1753361;81;27444;-91
2022/04/06 08:14:53;;;;;;;8.30;3.40;;;;;;;21.91;50.61;97633.67;1753430;81;25662;-92
2022/04/06 08:17:19;;;;;;;7.70;3.35;;;;;;;21.91;50.61;97626.70;1753378;81;25659;-92
2022/04/06 08:19:46;;;;;;;7.90;3.27;;;;;;;21.91;50.56;97625.31;1753335;81;25684;-91
2022/04/06 08:22:12;;;;;;;6.20;3.08;;;;;;;21.92;50.53;97626.88;1753455;81;25398;-91
2022/04/06 08:24:39;;;;;;;6.92;3.55;;;;;;;21.94;50.52;97623.86;1753363;81;27518;-91
2022/04/06 08:27:05;;;;;;;7.90;3.67;;;;;;;21.94;50.51;97625.88;1753265;81;25656;-91
2022/04/06 08:29:31;;;;;;;5.17;3.05;;;;;;;21.97;50.46;97634.80;1753449;81;25742;-90
2022/04/06 08:31:58;;;;;;;6.03;3.00;;;;;;;21.98;50.45;97636.97;1753357;81;25638;-90
2022/04/06 08:34:24;;;;;;;6.22;3.10;;;;;;;21.97;50.46;97635.39;1753340;81;25651;-87
2022/04/06 08:36:50;;;;;;;7.37;3.50;;;;;;;21.96;50.49;97642.96;1753257;81;27366;-88
2022/04/06 08:39:17;;;;;;;6.87;3.22;;;;;;;21.95;50.50;97638.60;1753253;81;25503;-87
2022/04/06 08:41:43;;;;;;;6.00;3.15;;;;;;;21.95;50.51;97649.75;1753266;81;25670;-87
2022/04/06 08:44:09;;;;;;;6.25;3.22;;;;;;;21.93;50.52;97650.17;1753269;81;25693;-87
2022/04/06 08:46:41;;;;;;;6.95;3.12;;;;;;;21.94;50.53;97654.53;1754120;80;25661;-88
2022/04/06 08:49:05;;;;;;;5.15;3.00;;;;;;;21.93;50.56;97655.75;1755296;80;25923;-87
2022/04/06 08:51:36;;;;;;;5.15;3.05;;;;;;;21.90;50.58;97653.79;1757085;81;25665;-87
2022/04/06 08:54:04;;;;;;;6.22;3.42;;;;;;;21.91;50.60;97657.38;1756796;81;25613;-88
2022/04/06 08:56:30;;;;;;;6.08;3.00;;;;;;;21.89;50.62;97661.98;1756909;81;26368;-87
2022/04/06 08:58:58;;;;;;;6.25;3.12;;;;;;;21.89;50.62;97659.78;1757077;81;25761;-87
2022/04/06 09:01:25;;;;;;;6.78;3.70;;;;;;;21.89;50.63;97658.39;1756744;81;27588;-87
2022/04/06 09:03:51;;;;;;;6.78;3.35;;;;;;;21.86;50.64;97660.02;1756957;81;25615;-87
2022/04/06 09:06:19;;;;;;;5.78;3.75;;;;;;;21.87;50.64;97660.79;1757082;81;25669;-87
2022/04/06 09:08:48;;;;;;;7.08;3.58;;;;;;;21.87;50.63;97656.61;1725071;81;25786;-87
2022/04/06 09:11:24;;;;;;;6.60;3.40;;;;;;;21.87;50.61;97657.41;1757135;81;25745;-90
2022/04/06 09:13:56;;;;;;;5.70;3.30;;;;;;;21.86;50.61;97644.69;1755430;81;27677;-86
2022/04/06 09:16:25;;;;;;;6.65;3.12;;;;;;;21.87;50.59;97646.84;1756155;81;25657;-87
2022/04/06 09:18:51;;;;;;;7.20;3.20;;;;;;;21.87;50.56;97644.86;1757094;81;25697;-87
2022/04/06 09:21:25;;;;;;;6.92;3.35;;;;;;;21.88;50.57;97633.11;1757068;81;25425;-86
2022/04/06 09:23:58;;;;;;;6.03;3.08;;;;;;;21.89;50.56;97636.08;1757127;81;25425;-86
2022/04/06 09:26:32;;;;;;;5.25;2.85;;;;;;;21.89;50.56;97637.47;1725452;81;27547;-86
2022/04/06 09:28:58;;;;;;;5.92;3.33;;;;;;;21.89;50.55;97638.27;1756898;81;26000;-87
2022/04/06 09:31:24;;;;;;;6.00;3.12;;;;;;;21.89;50.58;97631.30;1756877;81;25686;-86
2022/04/06 09:33:58;;;;;;;5.53;2.87;;;;;;;21.89;50.60;97641.06;1757209;81;25749;-86
2022/04/06 09:36:28;;;;;;;5.12;2.95;;;;;;;21.88;50.59;97638.06;1756293;80;25734;-86
2022/04/06 09:38:54;;;;;;;5.45;3.10;;;;;;;21.88;50.62;97640.86;1757362;81;27558;-86
2022/04/06 09:41:21;;;;;;;6.35;3.25;;;;;;;21.87;50.60;97639.28;1757189;81;25789;-86
2022/04/06 09:43:50;;;;;;;5.67;2.90;;;;;;;21.88;50.63;97640.08;1757099;81;25432;-89
2022/04/06 09:49:18;;;;;;;5.92;3.02;;;;;;;21.87;50.65;97642.66;1756859;81;25641;-88
2022/04/06 09:51:51;;;;;;;5.92;3.00;;;;;;;21.87;50.65;97639.88;1756886;81;27493;-89
2022/04/06 09:54:16;;;;;;;5.22;2.98;;;;;;;21.87;50.64;97632.91;1756667;81;25593;-89
2022/04/06 09:56:44;;;;;;;4.83;2.95;;;;;;;21.86;50.64;97630.73;1757332;81;25624;-86
2022/04/06 09:59:13;;;;;;;5.35;3.00;;;;;;;21.86;50.64;97625.75;1757119;81;25739;-87
2022/04/06 10:01:52;;;;;;;5.25;2.83;;;;;;;21.85;50.66;97620.80;1757192;81;25457;-88
2022/04/06 10:04:21;;;;;;;4.67;3.15;;;;;;;21.86;50.69;97617.39;1756930;81;27493;-88
2022/04/06 10:06:49;;;;;;;5.75;3.20;;;;;;;21.87;50.66;97614.19;1756770;81;25602;-88
2022/04/06 10:09:16;;;;;;;5.05;2.80;;;;;;;21.87;50.65;97614.19;1757103;81;25632;-88
2022/04/06 10:11:43;;;;;;;4.92;2.67;;;;;;;21.88;50.59;97612.20;1757092;81;25674;-88
2022/04/06 10:14:11;;;;;;;5.87;3.02;;;;;;;21.88;50.52;97609.41;1757208;81;25622;-87
2022/04/06 10:16:38;;;;;;;5.08;2.87;;;;;;;21.88;50.58;97609.41;1757227;81;27385;-87
2022/04/06 10:19:08;;;;;;;4.50;2.70;;;;;;;21.89;50.60;97608.19;1757012;81;25607;-87
2022/04/06 10:21:58;;;;;;;4.83;2.83;;;;;;;21.89;50.63;97615.96;1756120;81;25600;-87
2022/04/06 10:25:01;;;;;;;4.70;2.85;;;;;;;21.89;50.66;97608.99;1757165;81;26261;-87
2022/04/06 10:27:32;;;;;;;5.05;2.70;;;;;;;21.88;50.71;97607.39;1716931;83;25491;-87
2022/04/06 10:30:23;;;;;;;5.92;3.22;;;;;;;21.89;50.73;97604.81;1718304;83;27421;-87
2022/04/06 10:32:51;;;;;;;6.42;2.95;;;;;;;21.89;50.75;97606.80;1718218;83;25752;-87
2022/04/06 10:35:37;;;;;;;6.85;2.87;;;;;;;21.89;50.79;97600.63;1718505;83;25463;-87
2022/04/06 10:38:09;;;;;;;5.67;3.02;;;;;;;21.89;50.77;97595.64;1718173;83;26458;-88
2022/04/06 10:40:47;;;;;;;6.47;4.03;;;;;;;21.88;50.78;97593.45;1718550;83;25506;-88
2022/04/06 10:43:40;;;;;;;6.45;3.83;;;;;;;21.87;50.78;97592.47;1714105;82;27432;-88
2022/04/06 10:46:12;;;;;;;8.43;4.58;;;;;;;21.87;50.79;97591.08;1718250;83;25858;-88
2022/04/06 10:49:13;;;;;;;11.57;5.58;;;;;;;21.87;50.80;97591.08;1700336;82;25481;-87
2022/04/06 10:51:42;;;;;;;12.95;6.72;;;;;;;21.85;50.78;97592.11;1694833;83;25498;-87
2022/04/06 10:54:20;;;;;;;12.70;6.70;;;;;;;21.86;50.77;97585.31;1673717;84;25632;-87
2022/04/06 10:56:59;;;;;;;12.50;7.20;;;;;;;21.86;50.77;97588.11;1697351;84;27401;-88
2022/04/06 10:59:28;;;;;;;14.47;7.37;;;;;;;21.85;50.74;97587.34;1699102;82;25649;-88
2022/04/06 11:02:28;;;;;;;15.60;8.18;;;;;;;21.86;50.71;97586.13;1745201;82;25634;-88
2022/04/06 11:04:52;;;;;;;16.95;8.50;;;;;;;21.87;50.73;97586.89;1742623;82;25642;-88
2022/04/06 11:10:28;;;;;;;19.57;8.20;;;;;;;21.87;50.73;97587.69;1745513;82;25684;-88
2022/04/06 11:13:08;;;;;;;15.30;8.03;;;;;;;21.88;50.74;97583.69;1745460;82;25616;-88
2022/04/06 11:15:40;;;;;;;19.52;8.88;;;;;;;21.88;50.75;97587.09;1745410;82;25604;-88
2022/04/06 11:18:41;;;;;;;20.92;9.45;;;;;;;21.88;50.75;97590.66;1744953;82;25680;-86
2022/04/06 11:21:07;;;;;;;16.00;8.45;;;;;;;21.89;50.78;97586.68;1684149;84;25620;-86
2022/04/06 11:23:34;;;;;;;17.65;9.15;;;;;;;21.90;50.80;97586.06;1684163;85;27984;-87
2022/04/06 11:26:00;;;;;;;19.52;9.28;;;;;;;21.91;50.82;97588.43;1684072;85;25482;-87
2022/04/06 11:28:28;;;;;;;17.80;8.48;;;;;;;21.94;50.82;97579.85;1684233;85;25755;-86
2022/04/06 11:30:55;;;;;;;18.07;8.90;;;;;;;21.93;50.86;97583.23;1684320;85;25760;-86
2022/04/06 11:33:21;;;;;;;17.27;8.75;;;;;;;21.96;50.83;97582.23;1684295;85;25797;-86
2022/04/06 11:35:48;;;;;;;19.87;9.43;;;;;;;21.96;50.83;97571.07;1684144;85;27620;-85
2022/04/06 11:38:14;;;;;;;16.27;8.73;;;;;;;21.97;50.86;97575.43;1684000;85;25764;-86
2022/04/06 11:40:42;;;;;;;18.75;9.50;;;;;;;21.99;50.91;97567.45;1684129;85;25827;-86
2022/04/06 11:43:08;;;;;;;17.70;9.00;;;;;;;22.00;50.94;97564.83;1683858;85;25770;-85
2022/04/06 11:45:40;;;;;;;19.27;9.03;;;;;;;22.01;50.95;97558.03;1684275;85;25776;-86